Time;durP1;ratioP1;P1;durP2;ratioP2;P2;SDS_P1;SDS_P2;PMS_P1;PMS_P2;Temp;Humidity;BMP_temperature;BMP_pressure;BME280_temperature;BME280_humidity;BME280_pressure;Samples;Min_cycle;Max_cycle;Signal;HPM_P1;HPM_P2
2022/11/10 00:02:00;;;;;;;3.13;1.10;;;12.80;93.10;;;;;;5056117;28;20040;-72
2022/11/10 00:04:44;;;;;;;3.30;0.98;;;12.80;93.20;;;;;;5051848;28;20094;-76
2022/11/10 00:07:28;;;;;;;2.58;0.82;;;12.80;93.00;;;;;;5049904;28;20522;-76
2022/11/10 00:10:12;;;;;;;1.48;0.75;;;12.90;93.00;;;;;;5058071;28;20058;-75
2022/11/10 00:13:01;;;;;;;2.60;0.90;;;12.90;92.80;;;;;;5047924;28;20044;-76
2022/11/10 00:18:49;;;;;;;3.90;0.85;;;13.10;92.70;;;;;;5054031;28;20042;-76
2022/11/10 00:21:35;;;;;;;3.85;1.00;;;13.20;92.50;;;;;;5051395;28;20051;-76
2022/11/10 00:24:20;;;;;;;1.92;0.80;;;13.30;92.40;;;;;;5039683;28;20068;-76
2022/11/10 00:27:04;;;;;;;5.03;1.33;;;13.30;92.20;;;;;;5048620;28;20071;-76
2022/11/10 00:29:49;;;;;;;2.75;0.90;;;13.40;92.10;;;;;;5046459;28;20051;-76
2022/11/10 00:32:33;;;;;;;1.35;0.80;;;13.40;92.00;;;;;;5049445;28;20040;-76
2022/11/10 00:35:18;;;;;;;3.38;1.08;;;13.40;92.00;;;;;;5049046;28;20048;-76
2022/11/10 00:38:02;;;;;;;1.63;0.77;;;13.40;91.90;;;;;;5055921;28;20458;-77
2022/11/10 00:40:47;;;;;;;2.10;1.15;;;13.50;91.90;;;;;;5053121;28;20044;-76
2022/11/10 00:43:31;;;;;;;4.07;1.10;;;13.50;91.70;;;;;;5051016;28;20174;-76
2022/11/10 00:46:16;;;;;;;1.30;0.73;;;13.50;91.70;;;;;;5050255;28;20707;-76
2022/11/10 00:49:00;;;;;;;2.72;1.20;;;13.50;91.60;;;;;;5056032;28;20083;-76
2022/11/10 00:51:45;;;;;;;1.52;0.70;;;13.50;91.50;;;;;;5048135;28;20075;-76
2022/11/10 00:54:29;;;;;;;2.63;1.00;;;13.50;91.50;;;;;;5054703;28;20098;-76
2022/11/10 00:57:15;;;;;;;2.80;0.93;;;13.50;91.50;;;;;;5052494;28;20052;-76
2022/11/10 00:59:59;;;;;;;2.55;1.05;;;13.40;90.90;;;;;;5050069;28;20052;-76
2022/11/10 01:02:43;;;;;;;1.85;0.77;;;13.40;91.20;;;;;;5052072;28;20051;-76
2022/11/10 01:05:29;;;;;;;2.95;0.80;;;13.40;91.00;;;;;;5050286;28;20051;-76
2022/11/10 01:08:13;;;;;;;5.85;1.00;;;13.40;90.70;;;;;;5055430;28;20047;-76
2022/11/10 01:11:14;;;;;;;2.72;0.73;;;13.40;90.60;;;;;;5044451;28;20114;-76
2022/11/10 01:13:58;;;;;;;3.50;0.85;;;13.40;90.90;;;;;;5059313;28;20086;-76
2022/11/10 01:16:43;;;;;;;4.32;1.05;;;13.40;91.00;;;;;;5051458;28;20119;-76
2022/11/10 01:19:27;;;;;;;3.65;0.93;;;13.30;90.80;;;;;;5051880;28;20401;-76
2022/11/10 01:22:11;;;;;;;2.53;1.30;;;13.30;91.00;;;;;;5050327;28;20094;-76
2022/11/10 01:24:56;;;;;;;4.18;1.02;;;13.20;91.10;;;;;;5050297;28;20044;-76
2022/11/10 01:27:40;;;;;;;2.35;0.77;;;13.20;91.20;;;;;;5050666;28;20051;-76
2022/11/10 01:30:24;;;;;;;1.02;0.77;;;13.10;91.30;;;;;;5046371;28;20099;-76
2022/11/10 01:33:08;;;;;;;2.65;0.95;;;13.10;91.50;;;;;;5052437;28;20047;-76
2022/11/10 01:35:52;;;;;;;2.95;0.73;;;13.20;91.50;;;;;;5048410;28;20618;-76
2022/11/10 01:38:39;;;;;;;3.05;1.00;;;13.20;91.60;;;;;;5054283;28;20140;-76
2022/11/10 01:41:24;;;;;;;1.90;0.88;;;13.30;91.60;;;;;;5047828;28;20038;-76
2022/11/10 01:44:23;;;;;;;2.83;1.10;;;13.30;91.50;;;;;;5049234;28;20051;-76
2022/11/10 01:47:07;;;;;;;1.35;0.70;;;13.40;91.40;;;;;;5045177;28;20583;-76
2022/11/10 01:49:52;;;;;;;5.30;1.00;;;13.40;91.30;;;;;;5050441;28;20550;-76
2022/11/10 01:52:36;;;;;;;6.30;0.90;;;13.40;91.10;;;;;;5050601;28;20043;-76
2022/11/10 01:55:22;;;;;;;6.07;1.20;;;13.50;91.10;;;;;;5052042;28;20055;-76
2022/11/10 01:58:06;;;;;;;3.97;1.03;;;13.50;90.90;;;;;;5048013;28;20127;-76
2022/11/10 02:00:51;;;;;;;2.03;0.82;;;13.50;90.60;;;;;;5049028;28;20075;-76
2022/11/10 02:03:46;;;;;;;6.75;1.27;;;13.50;90.60;;;;;;5043310;28;20048;-76
2022/11/10 02:06:35;;;;;;;3.25;1.08;;;13.50;90.60;;;;;;5049140;28;20766;-76
2022/11/10 02:09:19;;;;;;;4.18;1.10;;;13.50;90.40;;;;;;5052170;28;20062;-76
2022/11/10 02:12:04;;;;;;;9.88;1.52;;;13.50;90.20;;;;;;5054344;28;20611;-76
2022/11/10 02:14:49;;;;;;;4.07;0.95;;;13.50;90.30;;;;;;5055010;28;20038;-76
2022/11/10 02:17:34;;;;;;;3.40;1.63;;;13.60;90.10;;;;;;5051190;28;20092;-76
2022/11/10 02:20:20;;;;;;;1.80;0.90;;;13.60;89.80;;;;;;5051687;28;20089;-76
2022/11/10 02:23:34;;;;;;;4.93;1.17;;;13.60;89.60;;;;;;5046091;28;20055;-76
2022/11/10 02:26:26;;;;;;;2.97;1.10;;;13.60;89.80;;;;;;5045125;28;20043;-76
2022/11/10 02:29:10;;;;;;;3.72;1.08;;;13.50;89.70;;;;;;5050123;28;20515;-76
2022/11/10 02:31:54;;;;;;;5.15;1.50;;;13.50;89.50;;;;;;5050811;28;20547;-76
2022/11/10 02:34:38;;;;;;;9.07;1.00;;;13.60;89.50;;;;;;5047115;28;20075;-76
2022/11/10 02:37:22;;;;;;;3.58;1.30;;;13.60;89.70;;;;;;5049231;28;20666;-76
2022/11/10 02:40:07;;;;;;;5.05;1.50;;;13.60;89.80;;;;;;5044904;28;20145;-76
2022/11/10 02:42:51;;;;;;;4.45;1.58;;;13.60;88.80;;;;;;5048620;28;20047;-76
2022/11/10 02:45:40;;;;;;;5.15;1.10;;;13.60;88.80;;;;;;5043343;28;20110;-76
2022/11/10 02:48:25;;;;;;;2.10;1.20;;;13.60;88.70;;;;;;5051452;28;20052;-76
2022/11/10 02:51:09;;;;;;;3.85;1.10;;;13.60;88.60;;;;;;5047342;28;20048;-76
2022/11/10 02:53:53;;;;;;;5.40;1.20;;;13.60;89.40;;;;;;5050496;28;20048;-76
2022/11/10 02:56:37;;;;;;;4.75;1.83;;;13.60;88.80;;;;;;5049867;28;20514;-76
2022/11/10 02:59:21;;;;;;;5.65;1.02;;;13.60;89.20;;;;;;5046033;28;20864;-76
2022/11/10 03:02:06;;;;;;;3.17;1.45;;;13.60;89.00;;;;;;5045281;28;20043;-76
2022/11/10 03:04:50;;;;;;;4.70;1.20;;;13.60;88.70;;;;;;5048718;28;20543;-76
2022/11/10 03:07:34;;;;;;;6.55;1.20;;;13.60;88.60;;;;;;5049063;28;20140;-76
2022/11/10 03:10:18;;;;;;;3.97;1.20;;;13.50;88.10;;;;;;5048292;28;20118;-76
2022/11/10 03:13:03;;;;;;;3.30;0.82;;;13.40;88.60;;;;;;5051776;28;20063;-76
2022/11/10 03:15:48;;;;;;;6.43;1.75;;;13.30;89.10;;;;;;5050341;28;20112;-76
2022/11/10 03:18:33;;;;;;;5.05;1.52;;;13.30;89.60;;;;;;5047664;28;20048;-76
2022/11/10 03:21:17;;;;;;;3.92;1.00;;;13.20;89.50;;;;;;5045351;28;20085;-76
2022/11/10 03:24:01;;;;;;;2.60;0.93;;;13.10;89.80;;;;;;5048227;28;20087;-76
2022/11/10 03:26:46;;;;;;;1.80;1.10;;;13.10;90.00;;;;;;5049605;28;20052;-76
2022/11/10 03:29:30;;;;;;;6.82;1.65;;;13.00;90.10;;;;;;5053164;28;20053;-76
2022/11/10 03:32:15;;;;;;;5.15;1.23;;;12.90;90.30;;;;;;5046985;28;20072;-76
2022/11/10 03:34:59;;;;;;;4.05;0.90;;;12.80;90.50;;;;;;5054528;28;20523;-76
2022/11/10 03:37:43;;;;;;;5.93;1.20;;;12.80;90.60;;;;;;5051120;28;20719;-75
2022/11/10 03:40:28;;;;;;;1.95;1.30;;;12.70;90.80;;;;;;5051990;28;20050;-76
2022/11/10 03:43:13;;;;;;;4.97;1.50;;;12.60;90.90;;;;;;5049122;28;20416;-76
2022/11/10 03:45:57;;;;;;;8.90;1.38;;;12.60;91.00;;;;;;5048289;28;20147;-72
2022/11/10 03:48:42;;;;;;;4.78;1.55;;;12.60;91.10;;;;;;5050836;28;20047;-71
2022/11/10 03:51:26;;;;;;;2.47;1.05;;;12.60;91.30;;;;;;5050656;28;20122;-72
2022/11/10 03:54:10;;;;;;;3.55;1.35;;;12.60;91.30;;;;;;5045148;28;20174;-71
2022/11/10 03:56:54;;;;;;;2.85;1.42;;;12.60;91.40;;;;;;5048113;28;20761;-72
2022/11/10 03:59:38;;;;;;;2.50;1.30;;;12.60;91.40;;;;;;5055865;28;20079;-76
2022/11/10 04:02:22;;;;;;;4.90;1.13;;;12.70;91.40;;;;;;5053126;28;20102;-76
2022/11/10 04:15:40;;;;;;;7.63;1.60;;;12.60;91.40;;;;;;5052671;28;20048;-76
2022/11/10 04:17:46;;;;;;;3.25;1.23;;;12.40;91.50;;;;;;4998150;28;20662;-76
2022/11/10 04:20:31;;;;;;;4.82;1.80;;;12.30;91.70;;;;;;5047392;28;20043;-76
2022/11/10 04:23:29;;;;;;;4.97;1.30;;;12.20;91.80;;;;;;5052267;28;20048;-76
2022/11/10 04:26:29;;;;;;;5.07;2.40;;;12.10;92.00;;;;;;5051835;28;20048;-76
2022/11/10 04:29:15;;;;;;;5.30;1.48;;;12.10;92.10;;;;;;5044846;28;20044;-76
2022/11/10 04:32:00;;;;;;;5.63;1.40;;;12.00;92.30;;;;;;5049837;28;20143;-76
2022/11/10 04:34:44;;;;;;;2.78;1.33;;;12.00;92.40;;;;;;5050258;28;20285;-76
2022/11/10 04:37:28;;;;;;;7.32;1.95;;;12.00;92.40;;;;;;5047858;28;20412;-76
2022/11/10 04:40:12;;;;;;;4.97;1.40;;;11.90;92.60;;;;;;5052723;28;20852;-76
2022/11/10 04:42:56;;;;;;;4.22;1.40;;;12.00;92.60;;;;;;5053119;28;20079;-76
2022/11/10 04:45:41;;;;;;;2.13;1.00;;;12.00;92.60;;;;;;5049735;28;20095;-76
2022/11/10 04:48:26;;;;;;;4.22;1.45;;;11.90;92.60;;;;;;5050598;28;20087;-76
2022/11/10 04:51:11;;;;;;;4.50;1.67;;;11.90;92.60;;;;;;5046210;28;20557;-76
2022/11/10 04:53:55;;;;;;;3.65;1.25;;;11.80;92.60;;;;;;5049903;28;20496;-76
2022/11/10 04:56:39;;;;;;;4.55;1.33;;;11.80;92.60;;;;;;5049802;28;20420;-76
2022/11/10 04:59:24;;;;;;;2.58;1.25;;;11.70;92.70;;;;;;5056333;28;20144;-76
2022/11/10 05:02:08;;;;;;;6.38;1.45;;;11.70;92.90;;;;;;5056344;28;20044;-76
2022/11/10 05:04:52;;;;;;;2.10;1.50;;;11.60;92.90;;;;;;5049100;28;20059;-76
2022/11/10 05:07:37;;;;;;;2.33;1.48;;;11.60;93.00;;;;;;5050340;28;20047;-76
2022/11/10 05:10:21;;;;;;;3.00;1.20;;;11.50;93.30;;;;;;5048102;28;20044;-76
2022/11/10 05:13:06;;;;;;;7.60;1.38;;;11.50;93.40;;;;;;5048170;28;20102;-76
2022/11/10 05:15:51;;;;;;;3.03;1.48;;;11.50;93.60;;;;;;5048455;28;20075;-76
2022/11/10 05:18:35;;;;;;;4.22;1.25;;;11.50;93.60;;;;;;5056575;28;20147;-76
2022/11/10 05:21:20;;;;;;;7.47;1.75;;;11.50;93.60;;;;;;5047939;28;20090;-76
2022/11/10 05:24:04;;;;;;;2.63;1.30;;;11.40;93.60;;;;;;5047579;28;20897;-76
2022/11/10 05:26:49;;;;;;;3.00;1.33;;;11.40;93.60;;;;;;5048868;28;20106;-76
2022/11/10 05:29:33;;;;;;;3.95;1.65;;;11.40;93.60;;;;;;5048053;28;20746;-76
2022/11/10 05:32:17;;;;;;;5.15;1.45;;;11.40;93.60;;;;;;5052114;28;20047;-76
2022/11/10 05:35:01;;;;;;;7.80;1.73;;;11.30;93.70;;;;;;5053454;28;20066;-76
2022/11/10 05:37:45;;;;;;;2.58;1.33;;;11.30;93.80;;;;;;5047839;28;20044;-76
2022/11/10 05:40:30;;;;;;;5.72;1.27;;;11.30;93.80;;;;;;5036252;28;20064;-76
2022/11/10 05:43:14;;;;;;;4.18;1.33;;;11.20;93.80;;;;;;5044464;28;20070;-76
2022/11/10 05:45:59;;;;;;;4.68;1.63;;;11.20;93.80;;;;;;5045160;28;20702;-76
2022/11/10 05:48:43;;;;;;;3.40;1.35;;;11.20;93.80;;;;;;5042051;28;20645;-75
2022/11/10 05:51:27;;;;;;;4.43;1.65;;;11.20;93.90;;;;;;5043774;28;20114;-76
2022/11/10 05:54:12;;;;;;;7.32;1.67;;;11.10;94.00;;;;;;5050067;28;20097;-76
2022/11/10 05:56:56;;;;;;;3.05;1.35;;;11.10;94.10;;;;;;5051877;28;20495;-76
2022/11/10 05:59:40;;;;;;;2.15;1.20;;;11.10;94.20;;;;;;5042954;28;20075;-76
2022/11/10 06:02:24;;;;;;;9.63;2.25;;;11.00;94.20;;;;;;5050466;28;20047;-76
2022/11/10 06:05:10;;;;;;;6.97;1.33;;;11.00;94.40;;;;;;5046273;28;20077;-76
2022/11/10 06:07:54;;;;;;;3.67;1.70;;;11.00;94.50;;;;;;5045041;28;20048;-76
2022/11/10 06:10:39;;;;;;;4.93;1.42;;;11.00;94.40;;;;;;5044676;28;20059;-76
2022/11/10 06:13:24;;;;;;;3.33;1.65;;;11.00;94.40;;;;;;5046612;28;20048;-76
2022/11/10 06:16:08;;;;;;;3.70;1.40;;;10.90;94.50;;;;;;5047799;28;20048;-76
2022/11/10 06:18:53;;;;;;;4.40;1.38;;;11.00;94.40;;;;;;5046476;28;20044;-76
2022/11/10 06:21:37;;;;;;;4.88;1.42;;;11.00;94.40;;;;;;5048842;28;20076;-76
2022/11/10 06:24:22;;;;;;;3.08;1.40;;;11.00;94.30;;;;;;5046988;28;20510;-76
2022/11/10 06:27:06;;;;;;;4.60;1.65;;;10.90;94.40;;;;;;5045687;28;20555;-76
2022/11/10 06:29:51;;;;;;;6.97;1.80;;;10.90;94.40;;;;;;5049018;28;20047;-76
2022/11/10 06:32:35;;;;;;;5.53;2.08;;;10.90;94.50;;;;;;5047869;28;20085;-75
2022/11/10 06:35:21;;;;;;;3.70;1.50;;;10.90;94.60;;;;;;5043829;28;20044;-76
2022/11/10 06:38:08;;;;;;;2.78;1.20;;;10.80;94.60;;;;;;5052037;28;20036;-76
2022/11/10 06:40:53;;;;;;;3.28;1.35;;;10.80;94.70;;;;;;5047844;28;20520;-76
2022/11/10 06:43:37;;;;;;;4.32;2.22;;;10.80;94.80;;;;;;5046609;28;20043;-76
2022/11/10 06:46:21;;;;;;;5.28;1.83;;;10.80;94.90;;;;;;5048736;28;20043;-76
2022/11/10 06:49:06;;;;;;;6.60;1.65;;;10.80;95.00;;;;;;5053506;28;20108;-76
2022/11/10 06:51:51;;;;;;;7.45;2.10;;;10.80;95.10;;;;;;5046062;28;20104;-76
2022/11/10 06:54:35;;;;;;;6.68;1.70;;;10.80;95.20;;;;;;5050675;28;20044;-76
2022/11/10 06:57:19;;;;;;;12.05;4.03;;;10.80;95.30;;;;;;5045817;28;20524;-76
2022/11/10 07:00:04;;;;;;;8.05;3.10;;;10.90;95.50;;;;;;5044194;28;20036;-76
2022/11/10 07:02:58;;;;;;;9.38;3.40;;;11.00;95.50;;;;;;5032208;28;20064;-76
2022/11/10 07:05:43;;;;;;;7.55;3.25;;;11.10;95.50;;;;;;5049221;28;20746;-76
2022/11/10 07:08:27;;;;;;;7.20;3.67;;;11.20;95.30;;;;;;5044733;28;20072;-76
2022/11/10 07:11:12;;;;;;;4.13;2.70;;;11.30;95.20;;;;;;5045302;28;20084;-76
2022/11/10 07:13:56;;;;;;;7.28;3.15;;;11.40;95.10;;;;;;5028354;28;20043;-76
2022/11/10 07:16:40;;;;;;;6.95;2.55;;;11.40;95.00;;;;;;5048575;28;20043;-76
2022/11/10 07:19:24;;;;;;;7.00;2.05;;;11.40;94.90;;;;;;5051804;28;20126;-76
2022/11/10 07:22:09;;;;;;;6.03;2.22;;;11.40;94.80;;;;;;5042456;28;20048;-75
2022/11/10 07:24:53;;;;;;;9.43;3.70;;;11.50;94.80;;;;;;5047406;28;20098;-76
2022/11/10 07:27:37;;;;;;;9.93;3.83;;;11.50;94.80;;;;;;5048022;28;20039;-76
2022/11/10 07:30:21;;;;;;;12.70;5.32;;;11.60;94.80;;;;;;5042823;28;20287;-76
2022/11/10 07:33:12;;;;;;;9.98;4.07;;;11.60;94.70;;;;;;5050401;28;20051;-76
2022/11/10 07:35:58;;;;;;;8.98;3.22;;;11.70;94.70;;;;;;5045706;28;20048;-75
2022/11/10 07:38:43;;;;;;;7.78;3.30;;;11.70;94.60;;;;;;5049715;28;20124;-76
2022/11/10 07:41:27;;;;;;;20.27;7.03;;;11.80;94.60;;;;;;5045778;28;21137;-76
2022/11/10 07:44:11;;;;;;;15.15;5.80;;;11.90;94.40;;;;;;5049137;28;20428;-75
2022/11/10 07:46:56;;;;;;;17.83;6.38;;;11.90;94.50;;;;;;5057574;28;20056;-81
2022/11/10 07:49:41;;;;;;;17.30;6.60;;;12.00;94.40;;;;;;5046364;28;20052;-72
2022/11/10 07:52:25;;;;;;;14.98;5.03;;;12.10;94.20;;;;;;5047883;28;20079;-73
2022/11/10 07:55:09;;;;;;;10.38;4.78;;;12.10;94.10;;;;;;5047338;28;20055;-75
2022/11/10 07:57:58;;;;;;;7.43;3.05;;;12.20;94.00;;;;;;5049987;28;20052;-77
2022/11/10 08:00:45;;;;;;;9.15;3.10;;;12.40;93.60;;;;;;5049638;28;20098;-73
2022/11/10 08:03:30;;;;;;;7.55;3.45;;;12.50;93.50;;;;;;5050667;28;20046;-73
2022/11/10 08:06:15;;;;;;;6.22;2.47;;;12.60;93.40;;;;;;5049010;28;20187;-73
2022/11/10 08:08:59;;;;;;;12.00;2.55;;;12.70;93.00;;;;;;5048374;28;20048;-73
2022/11/10 08:11:43;;;;;;;12.60;3.22;;;12.70;92.30;;;;;;5048072;28;20417;-73
2022/11/10 08:14:28;;;;;;;9.07;3.72;;;12.70;92.30;;;;;;5042645;28;20120;-72
2022/11/10 08:17:12;;;;;;;9.13;3.30;;;12.70;92.30;;;;;;5051083;28;20047;-73
2022/11/10 08:19:56;;;;;;;4.97;2.80;;;12.70;92.40;;;;;;5048083;28;20091;-73
2022/11/10 08:22:41;;;;;;;8.18;2.63;;;12.80;92.50;;;;;;5046853;28;20047;-72
2022/11/10 08:25:27;;;;;;;9.20;2.60;;;13.00;92.40;;;;;;5048176;28;20124;-72
2022/11/10 08:28:15;;;;;;;3.92;2.08;;;13.30;92.00;;;;;;5045093;28;20721;-73
2022/11/10 08:31:02;;;;;;;7.45;2.83;;;13.70;91.50;;;;;;5049623;28;20939;-73
2022/11/10 08:33:47;;;;;;;7.70;2.17;;;13.90;90.90;;;;;;5046332;28;20876;-73
2022/11/10 08:36:31;;;;;;;6.50;2.28;;;14.00;90.70;;;;;;5047600;28;20048;-71
2022/11/10 08:39:15;;;;;;;7.82;2.60;;;14.20;89.90;;;;;;5047913;28;20078;-72
2022/11/10 08:42:00;;;;;;;8.55;2.20;;;14.20;89.90;;;;;;5047976;28;20055;-71
2022/11/10 08:44:45;;;;;;;4.10;1.58;;;14.20;89.80;;;;;;5044053;28;20134;-72
2022/11/10 08:47:29;;;;;;;5.63;2.25;;;14.30;90.20;;;;;;5048021;28;20040;-71
2022/11/10 08:50:13;;;;;;;6.80;2.35;;;14.40;89.60;;;;;;5045688;28;20711;-74
2022/11/10 08:53:06;;;;;;;8.20;2.08;;;14.50;88.50;;;;;;5049019;28;20071;-72
2022/11/10 08:55:52;;;;;;;7.97;2.15;;;14.60;87.80;;;;;;5044547;28;20091;-71
2022/11/10 08:58:37;;;;;;;10.45;2.40;;;14.80;87.60;;;;;;5046093;28;20090;-72
2022/11/10 09:01:21;;;;;;;8.25;3.00;;;15.10;86.90;;;;;;5046337;28;20044;-72
2022/11/10 09:04:06;;;;;;;8.35;2.25;;;15.30;84.80;;;;;;5050324;28;20156;-73
2022/11/10 09:06:50;;;;;;;9.68;2.47;;;15.80;84.00;;;;;;5045298;28;20086;-71
2022/11/10 09:09:34;;;;;;;9.43;2.25;;;16.40;81.40;;;;;;5045151;28;20222;-75
2022/11/10 09:12:18;;;;;;;8.15;1.90;;;16.90;79.60;;;;;;5043120;28;20098;-70
2022/11/10 09:15:03;;;;;;;6.20;1.88;;;17.30;76.70;;;;;;5045729;28;20043;-69
2022/11/10 09:17:48;;;;;;;6.63;1.77;;;17.50;76.10;;;;;;5045590;28;20086;-69
2022/11/10 09:20:34;;;;;;;10.82;1.92;;;18.10;73.40;;;;;;5041158;28;20088;-69
2022/11/10 09:23:18;;;;;;;7.53;2.15;;;18.90;71.80;;;;;;5045665;28;20875;-69
2022/11/10 09:26:06;;;;;;;9.07;2.17;;;19.90;67.30;;;;;;5046164;28;20116;-70
2022/11/10 09:28:51;;;;;;;9.18;1.95;;;19.80;67.00;;;;;;5047113;28;20052;-69
2022/11/10 09:31:35;;;;;;;9.85;1.80;;;19.90;66.60;;;;;;5048543;28;20105;-70
2022/11/10 09:34:19;;;;;;;11.32;2.05;;;20.70;64.30;;;;;;5050889;28;20132;-69
2022/11/10 09:37:04;;;;;;;4.20;1.50;;;21.30;61.20;;;;;;5045862;28;20137;-71
2022/11/10 09:39:48;;;;;;;10.05;2.10;;;22.00;59.20;;;;;;5044951;28;20420;-73
2022/11/10 09:42:38;;;;;;;8.98;1.98;;;22.50;57.00;;;;;;5049100;28;20792;-69
2022/11/10 09:45:29;;;;;;;6.00;2.20;;;22.80;56.60;;;;;;5050577;28;20048;-68
2022/11/10 09:48:40;;;;;;;8.50;1.77;;;23.30;54.90;;;;;;5061835;28;20673;-69
2022/11/10 09:51:30;;;;;;;10.73;2.10;;;23.30;54.40;;;;;;5047647;28;20043;-71
2022/11/10 09:54:20;;;;;;;6.97;1.60;;;22.80;53.80;;;;;;5042984;28;20085;-70
2022/11/10 09:57:09;;;;;;;10.30;2.05;;;21.80;56.70;;;;;;5049622;28;20114;-74
2022/11/10 09:59:54;;;;;;;8.60;1.95;;;21.10;59.00;;;;;;5056842;28;20086;-73
2022/11/10 10:02:44;;;;;;;5.28;1.50;;;21.00;59.90;;;;;;5049153;28;20047;-71
2022/11/10 10:05:45;;;;;;;4.07;1.65;;;20.80;60.00;;;;;;5044935;28;20056;-72
2022/11/10 10:08:50;;;;;;;6.15;1.65;;;21.60;58.90;;;;;;5042746;28;20048;-72
2022/11/10 10:11:41;;;;;;;9.43;2.45;;;21.80;57.20;;;;;;5046379;28;20048;-71
2022/11/10 10:14:31;;;;;;;9.70;2.47;;;21.60;58.20;;;;;;5045216;28;20098;-73
2022/11/10 10:17:41;;;;;;;7.05;1.83;;;21.80;56.90;;;;;;5042305;28;20110;-75
2022/11/10 10:21:05;;;;;;;9.00;2.92;;;21.90;56.30;;;;;;5054179;28;20075;-70
2022/11/10 10:23:51;;;;;;;22.02;10.48;;;21.80;56.50;;;;;;5047090;28;20052;-69
2022/11/10 10:26:40;;;;;;;12.82;5.00;;;22.50;55.40;;;;;;5043000;28;20063;-70
2022/11/10 10:29:31;;;;;;;18.45;8.07;;;23.60;52.10;;;;;;5051599;28;20075;-70
2022/11/10 10:32:16;;;;;;;14.73;7.05;;;23.90;50.60;;;;;;5049050;28;20055;-71
2022/11/10 10:35:01;;;;;;;12.15;3.20;;;24.50;50.60;;;;;;5053293;28;20059;-81
2022/11/10 10:37:50;;;;;;;15.07;5.05;;;25.80;48.10;;;;;;5044256;28;20056;-75
2022/11/10 10:40:34;;;;;;;12.90;4.15;;;27.00;46.30;;;;;;5044875;28;20036;-71
2022/11/10 10:43:19;;;;;;;17.98;7.20;;;27.70;44.40;;;;;;5048684;28;20122;-71
2022/11/10 10:46:14;;;;;;;9.18;2.42;;;27.70;42.80;;;;;;5047015;28;20048;-71
2022/11/10 10:49:18;;;;;;;5.60;1.63;;;27.60;42.70;;;;;;5044597;28;20052;-70
2022/11/10 10:52:15;;;;;;;8.23;2.03;;;28.00;42.50;;;;;;5048370;28;20151;-73
2022/11/10 10:55:05;;;;;;;7.10;1.88;;;28.70;41.50;;;;;;5046017;28;20052;-72
2022/11/10 10:57:56;;;;;;;6.85;1.73;;;28.80;40.50;;;;;;5049174;28;20111;-71
2022/11/10 11:01:23;;;;;;;9.02;1.65;;;27.90;42.70;;;;;;5049447;28;20463;-75
2022/11/10 11:04:28;;;;;;;11.07;2.03;;;25.60;46.10;;;;;;4951274;28;20054;-72
2022/11/10 11:07:23;;;;;;;8.85;2.10;;;22.70;52.50;;;;;;5052776;28;20094;-72
2022/11/10 11:10:26;;;;;;;6.28;1.35;;;20.70;57.60;;;;;;5052906;28;20055;-72
2022/11/10 11:13:20;;;;;;;7.65;1.83;;;19.60;61.30;;;;;;5047300;28;20852;-72
2022/11/10 11:16:07;;;;;;;6.15;1.50;;;19.00;63.00;;;;;;5051312;28;20137;-69
2022/11/10 11:18:52;;;;;;;5.63;1.50;;;18.60;65.40;;;;;;5055290;28;20417;-71
2022/11/10 11:21:48;;;;;;;7.75;1.40;;;18.30;65.70;;;;;;5051751;28;20608;-72
2022/11/10 11:24:42;;;;;;;8.85;1.83;;;18.10;67.90;;;;;;5048660;28;20078;-68
2022/11/10 11:27:41;;;;;;;11.52;1.85;;;17.80;68.10;;;;;;5056208;28;20090;-68
2022/11/10 11:30:44;;;;;;;7.88;1.90;;;17.60;69.50;;;;;;5049943;28;20075;-67
2022/11/10 11:33:39;;;;;;;5.43;1.67;;;17.50;70.20;;;;;;5048699;28;20440;-68
2022/11/10 11:36:51;;;;;;;6.47;1.55;;;17.40;71.00;;;;;;5051411;28;20731;-68
2022/11/10 11:39:45;;;;;;;7.20;1.50;;;17.30;71.70;;;;;;5055571;28;20055;-68
2022/11/10 11:43:03;;;;;;;10.25;1.52;;;17.40;72.00;;;;;;5045579;28;20472;-68
2022/11/10 11:46:16;;;;;;;6.43;1.25;;;17.60;72.50;;;;;;5050914;28;20095;-69
2022/11/10 11:49:22;;;;;;;4.85;1.40;;;17.70;72.10;;;;;;5052207;28;20052;-69
2022/11/10 11:52:09;;;;;;;5.85;1.52;;;17.80;71.30;;;;;;5050710;28;20102;-67
2022/11/10 11:55:15;;;;;;;10.90;1.60;;;17.80;71.00;;;;;;5049485;28;20056;-68
2022/11/10 11:58:04;;;;;;;7.40;1.65;;;17.80;70.10;;;;;;5052969;28;20071;-75
2022/11/10 12:01:09;;;;;;;6.38;1.17;;;17.80;69.80;;;;;;5049821;28;20043;-69
2022/11/10 12:04:18;;;;;;;6.88;1.67;;;17.80;70.00;;;;;;5049049;28;20036;-69
2022/11/10 12:07:11;;;;;;;8.50;1.48;;;17.80;70.10;;;;;;5047379;28;20064;-69
2022/11/10 12:10:26;;;;;;;4.63;1.40;;;17.70;70.40;;;;;;5036952;28;20051;-69
2022/11/10 12:13:11;;;;;;;8.20;1.48;;;17.80;70.20;;;;;;5051970;28;20052;-67
2022/11/10 12:16:20;;;;;;;6.68;1.73;;;17.90;71.00;;;;;;5044374;28;20102;-67
2022/11/10 12:19:42;;;;;;;6.05;1.67;;;17.80;70.00;;;;;;5052945;28;20128;-67
2022/11/10 12:22:42;;;;;;;8.48;2.13;;;17.80;71.00;;;;;;5045205;28;20047;-68
2022/11/10 12:25:50;;;;;;;10.25;1.70;;;17.80;71.10;;;;;;5051851;28;20043;-69
2022/11/10 12:28:54;;;;;;;6.65;1.83;;;17.80;70.10;;;;;;5050850;28;20086;-67
2022/11/10 12:31:42;;;;;;;4.22;1.20;;;17.80;71.90;;;;;;5044787;28;20098;-67
2022/11/10 12:34:42;;;;;;;9.23;1.83;;;17.70;71.20;;;;;;5043488;28;20044;-69
2022/11/10 12:37:37;;;;;;;6.28;1.65;;;17.80;71.10;;;;;;5046962;28;20805;-68
2022/11/10 12:40:29;;;;;;;6.30;1.40;;;17.70;71.20;;;;;;5046413;28;20048;-70
2022/11/10 12:43:26;;;;;;;9.30;2.03;;;17.50;71.30;;;;;;5049515;28;20083;-69
2022/11/10 12:46:11;;;;;;;;;;;17.30;72.00;;;;;;5047827;28;20051;-69
2022/11/10 12:49:18;;;;;;;8.13;1.50;;;17.20;71.50;;;;;;5051048;28;20395;-69
2022/11/10 12:52:52;;;;;;;8.25;1.35;;;17.10;72.50;;;;;;5051218;28;20051;-70
2022/11/10 12:55:44;;;;;;;2.58;1.10;;;17.00;72.60;;;;;;4979480;28;20687;-66
2022/11/10 12:58:29;;;;;;;11.55;1.75;;;16.90;73.40;;;;;;4976088;28;20203;-66
2022/11/10 13:01:18;;;;;;;6.53;1.67;;;16.90;74.20;;;;;;5043160;28;20147;-66
2022/11/10 13:04:04;;;;;;;8.68;1.38;;;16.80;73.80;;;;;;5043896;28;20114;-67
2022/11/10 13:06:56;;;;;;;7.90;1.80;;;16.80;73.90;;;;;;5037358;28;20060;-66
2022/11/10 13:09:42;;;;;;;10.20;1.67;;;16.70;74.20;;;;;;5046642;28;20052;-65
2022/11/10 13:12:26;;;;;;;10.55;1.60;;;16.60;75.30;;;;;;5048065;28;20052;-65
2022/11/10 13:15:35;;;;;;;7.53;1.40;;;16.50;75.30;;;;;;5047959;28;20108;-67
2022/11/10 13:18:43;;;;;;;9.10;1.55;;;16.30;75.10;;;;;;5049628;28;20047;-70
2022/11/10 13:21:49;;;;;;;4.40;1.55;;;16.20;76.70;;;;;;5049889;28;21113;-71
2022/11/10 13:24:35;;;;;;;10.15;1.88;;;16.10;76.20;;;;;;5047371;28;20090;-72
2022/11/10 13:27:39;;;;;;;;;;;15.90;76.80;;;;;;5049821;28;20173;-71
2022/11/10 13:30:37;;;;;;;5.28;1.33;;;15.90;77.40;;;;;;5052765;28;19919;-74
2022/11/10 13:33:24;;;;;;;5.30;1.30;;;16.00;78.10;;;;;;5051495;28;20090;-71
2022/11/10 13:36:09;;;;;;;6.20;1.27;;;16.10;77.20;;;;;;5047332;28;20059;-72
2022/11/10 13:38:54;;;;;;;6.10;1.50;;;16.10;77.40;;;;;;5051734;28;20059;-71
2022/11/10 13:41:48;;;;;;;5.13;1.67;;;16.10;78.00;;;;;;5042901;28;20044;-71
2022/11/10 13:44:46;;;;;;;2.80;1.20;;;16.20;77.50;;;;;;5053077;28;20317;-72
2022/11/10 13:47:51;;;;;;;5.30;1.30;;;16.10;76.40;;;;;;5046155;28;20119;-72
2022/11/10 13:50:41;;;;;;;5.10;1.40;;;16.10;76.20;;;;;;5044080;28;20115;-70
2022/11/10 13:53:29;;;;;;;5.35;1.85;;;15.90;76.90;;;;;;5046366;28;20047;-72
2022/11/10 13:56:32;;;;;;;5.50;1.73;;;15.90;77.30;;;;;;5044699;28;20048;-72
2022/11/10 13:59:23;;;;;;;4.97;1.10;;;15.50;77.50;;;;;;5046532;28;20043;-72
2022/11/10 14:02:35;;;;;;;5.55;1.45;;;15.40;79.00;;;;;;5046948;28;20080;-73
2022/11/10 14:05:29;;;;;;;5.70;1.38;;;15.40;79.30;;;;;;5055999;28;20094;-73
2022/11/10 14:08:19;;;;;;;7.75;1.23;;;15.40;79.10;;;;;;5054699;28;20048;-72
2022/11/10 14:11:11;;;;;;;5.32;1.58;;;15.40;78.30;;;;;;5042047;28;20044;-72
2022/11/10 14:14:01;;;;;;;10.52;1.40;;;15.40;79.00;;;;;;5046855;28;20097;-72
2022/11/10 14:16:46;;;;;;;7.35;1.40;;;15.40;79.10;;;;;;5043243;28;20052;-71
2022/11/10 14:19:37;;;;;;;5.82;1.80;;;15.40;78.00;;;;;;5046446;28;20047;-71
2022/11/10 14:22:26;;;;;;;5.38;1.33;;;15.40;78.60;;;;;;5043766;28;20048;-71
2022/11/10 14:25:22;;;;;;;5.40;1.60;;;15.40;78.80;;;;;;5045739;28;20064;-71
2022/11/10 14:28:30;;;;;;;4.97;1.88;;;15.40;78.60;;;;;;5047292;28;20036;-73
2022/11/10 14:31:24;;;;;;;4.25;1.20;;;15.40;78.10;;;;;;5045166;28;20156;-72
2022/11/10 14:34:14;;;;;;;6.47;1.45;;;15.30;79.40;;;;;;5036088;28;20043;-71
2022/11/10 14:37:01;;;;;;;3.30;1.25;;;15.30;79.00;;;;;;5044279;28;20052;-72
2022/11/10 14:39:46;;;;;;;9.55;1.88;;;15.40;79.10;;;;;;5044213;28;20044;-71
2022/11/10 14:42:32;;;;;;;4.78;1.83;;;15.40;78.80;;;;;;5045045;28;20043;-69
2022/11/10 14:45:19;;;;;;;5.10;1.38;;;15.40;78.40;;;;;;5043306;28;20036;-69
2022/11/10 14:48:16;;;;;;;9.02;1.13;;;15.40;78.50;;;;;;5035712;28;20051;-70
2022/11/10 14:51:10;;;;;;;9.68;1.38;;;15.40;79.40;;;;;;5046528;28;20048;-70